createdAt,value
2023-01-22T00:00:11.613Z,1.78
2023-01-22T00:03:18.836Z,1.85
2023-01-22T00:06:27.714Z,1.83
2023-01-22T00:09:37.124Z,1.79
2023-01-22T00:12:45.996Z,1.82
2023-01-22T00:15:55.308Z,1.81
2023-01-22T00:19:04.207Z,1.90
2023-01-22T00:22:12.013Z,1.77
2023-01-22T00:25:17.583Z,1.82
2023-01-22T00:28:23.531Z,1.86
2023-01-22T00:31:31.110Z,1.94
2023-01-22T00:34:39.691Z,1.86
2023-01-22T00:37:49.350Z,1.90
2023-01-22T00:40:55.901Z,1.88
2023-01-22T00:44:04.174Z,1.82
2023-01-22T00:47:09.301Z,1.81
2023-01-22T00:50:13.724Z,1.87
2023-01-22T00:53:17.928Z,1.91
2023-01-22T00:56:22.310Z,1.95
2023-01-22T00:59:27.533Z,1.84
2023-01-22T01:02:32.391Z,1.80
2023-01-22T01:05:37.800Z,1.70
2023-01-22T01:08:44.401Z,1.72
2023-01-22T01:11:53.297Z,1.68
2023-01-22T01:15:00.965Z,1.60
2023-01-22T01:18:13.612Z,1.56
2023-01-22T01:21:20.623Z,1.58
2023-01-22T01:24:30.317Z,1.55
2023-01-22T01:27:37.473Z,1.54
2023-01-22T01:30:45.642Z,1.48
2023-01-22T01:33:54.733Z,1.45
2023-01-22T01:36:58.579Z,1.39
2023-01-22T01:40:03.736Z,1.38
2023-01-22T01:43:16.439Z,1.37
2023-01-22T01:46:24.949Z,1.39
2023-01-22T01:49:38.093Z,1.34
2023-01-22T01:52:47.780Z,1.28
2023-01-22T01:55:54.180Z,1.25
2023-01-22T01:59:03.995Z,1.22
2023-01-22T02:02:12.121Z,1.35
2023-01-22T02:05:21.199Z,1.28
2023-01-22T02:08:27.712Z,1.18
2023-01-22T02:11:34.360Z,1.07
2023-01-22T02:14:42.493Z,1.01
2023-01-22T02:17:51.406Z,0.98
2023-01-22T02:20:59.572Z,0.87
2023-01-22T02:24:08.837Z,0.81
2023-01-22T02:27:16.978Z,0.82
2023-01-22T02:30:23.653Z,0.71
2023-01-22T02:33:32.598Z,0.61
2023-01-22T02:36:41.440Z,0.53
2023-01-22T02:39:48.408Z,0.62
2023-01-22T02:42:56.831Z,0.62
2023-01-22T02:46:04.612Z,0.59
2023-01-22T02:49:12.091Z,0.62
2023-01-22T02:52:17.344Z,0.71
2023-01-22T02:55:25.552Z,0.66
2023-01-22T02:58:34.759Z,0.60
2023-01-22T03:01:43.448Z,0.63
2023-01-22T03:04:52.723Z,0.69
2023-01-22T03:08:03.433Z,0.68
2023-01-22T03:11:10.087Z,0.76
2023-01-22T03:14:34.310Z,0.72
2023-01-22T03:17:58.793Z,0.59
2023-01-22T03:21:20.035Z,0.66
2023-01-22T03:24:28.349Z,0.79
2023-01-22T03:27:36.012Z,0.73
2023-01-22T03:30:44.834Z,0.76
2023-01-22T03:33:56.507Z,0.64
2023-01-22T03:37:03.511Z,0.60
2023-01-22T03:40:11.819Z,0.61
2023-01-22T03:43:20.019Z,0.64
2023-01-22T03:46:27.909Z,0.73
2023-01-22T03:49:35.059Z,0.80
2023-01-22T03:52:43.526Z,0.74
2023-01-22T03:56:01.074Z,0.73
2023-01-22T03:59:07.725Z,0.74
2023-01-22T04:02:14.627Z,0.77
2023-01-22T04:05:22.949Z,0.80
2023-01-22T04:08:30.921Z,0.96
2023-01-22T04:11:38.307Z,0.87
2023-01-22T04:14:47.234Z,0.96
2023-01-22T04:17:54.269Z,0.93
2023-01-22T04:21:01.497Z,0.89
2023-01-22T04:24:11.502Z,0.96
2023-01-22T04:27:19.890Z,1.03
2023-01-22T04:30:28.333Z,0.98
2023-01-22T04:33:36.972Z,0.99
2023-01-22T04:36:47.304Z,1.05
2023-01-22T04:39:57.324Z,1.18
2023-01-22T04:43:09.342Z,1.12
2023-01-22T04:46:17.085Z,1.19
2023-01-22T04:49:25.041Z,1.21
2023-01-22T04:52:33.407Z,1.14
2023-01-22T04:55:42.797Z,1.15
2023-01-22T04:58:51.599Z,1.26
2023-01-22T05:02:00.824Z,1.23
2023-01-22T05:05:08.565Z,1.27
2023-01-22T05:08:14.093Z,1.39
2023-01-22T05:11:20.886Z,1.32
2023-01-22T05:14:30.414Z,1.30
2023-01-22T05:17:37.274Z,1.27
2023-01-22T05:20:46.290Z,1.36
2023-01-22T05:23:57.528Z,1.36
2023-01-22T05:27:07.278Z,1.37
2023-01-22T05:30:17.682Z,1.41
2023-01-22T05:33:30.405Z,1.38
2023-01-22T05:36:37.898Z,1.36
2023-01-22T05:39:47.268Z,1.39
2023-01-22T05:42:56.323Z,1.39
2023-01-22T05:46:04.027Z,1.44
2023-01-22T05:49:10.821Z,1.40
2023-01-22T05:52:20.093Z,1.63
2023-01-22T05:55:27.476Z,1.58
2023-01-22T05:58:34.316Z,1.54
2023-01-22T06:01:42.416Z,1.53
2023-01-22T06:04:49.429Z,1.49
2023-01-22T06:07:57.463Z,1.50
2023-01-22T06:11:11.802Z,1.66
2023-01-22T06:14:20.144Z,1.61
2023-01-22T06:17:27.556Z,1.69
2023-01-22T06:20:35.153Z,1.68
2023-01-22T06:23:42.945Z,1.66
2023-01-22T06:26:50.438Z,1.71
2023-01-22T06:29:56.989Z,1.71
2023-01-22T06:33:04.718Z,1.64
2023-01-22T06:36:11.865Z,1.64
2023-01-22T06:39:17.607Z,1.67
2023-01-22T06:42:24.426Z,1.77
2023-01-22T06:45:32.349Z,1.72
2023-01-22T06:48:45.011Z,1.71
2023-01-22T06:51:50.649Z,1.79
2023-01-22T06:54:58.347Z,1.86
2023-01-22T06:58:03.616Z,1.84
2023-01-22T07:01:11.992Z,1.89
2023-01-22T07:04:16.873Z,1.96
2023-01-22T07:07:25.243Z,1.85
2023-01-22T07:10:32.366Z,1.80
2023-01-22T07:13:41.343Z,1.92
2023-01-22T07:16:50.500Z,2.10
2023-01-22T07:19:57.715Z,2.19
2023-01-22T07:23:05.429Z,2.31
2023-01-22T07:26:12.612Z,2.17
2023-01-22T07:29:17.652Z,2.19
2023-01-22T07:32:25.095Z,2.24
2023-01-22T07:35:31.721Z,2.23
2023-01-22T07:38:38.816Z,2.18
2023-01-22T07:41:44.667Z,2.14
2023-01-22T07:44:54.376Z,2.24
2023-01-22T07:48:02.072Z,2.35
2023-01-22T07:51:09.428Z,2.27
2023-01-22T07:54:18.494Z,2.26
2023-01-22T07:57:27.806Z,2.46
2023-01-22T08:00:36.791Z,2.46
2023-01-22T08:03:45.006Z,2.70
2023-01-22T08:06:52.634Z,2.78
2023-01-22T08:10:00.810Z,2.72
2023-01-22T08:13:07.844Z,2.69
2023-01-22T08:16:14.116Z,2.81
2023-01-22T08:19:20.442Z,3.04
2023-01-22T08:22:25.229Z,3.16
2023-01-22T08:25:35.596Z,3.21
2023-01-22T08:28:43.260Z,3.03
2023-01-22T08:31:55.881Z,3.25
2023-01-22T08:35:04.844Z,3.38
2023-01-22T08:38:11.821Z,3.42
2023-01-22T08:41:17.913Z,3.37
2023-01-22T08:44:22.975Z,3.60
2023-01-22T08:47:30.503Z,3.76
2023-01-22T08:50:37.120Z,3.73
2023-01-22T08:53:44.473Z,3.86
2023-01-22T08:56:52.172Z,3.61
2023-01-22T09:00:01.556Z,4.10
2023-01-22T09:03:08.071Z,3.97
2023-01-22T09:06:14.370Z,3.85
2023-01-22T09:09:20.207Z,3.95
2023-01-22T09:12:27.861Z,3.83
2023-01-22T09:15:33.521Z,3.76
2023-01-22T09:18:41.014Z,3.90
2023-01-22T09:21:49.033Z,3.79
2023-01-22T09:24:56.283Z,3.73
2023-01-22T09:28:03.763Z,3.92
2023-01-22T09:31:11.105Z,4.20
2023-01-22T09:34:16.846Z,4.03
2023-01-22T09:37:23.402Z,4.20
2023-01-22T09:40:32.586Z,4.07
2023-01-22T09:43:47.941Z,4.11
2023-01-22T09:46:57.109Z,3.87
2023-01-22T09:50:09.114Z,3.84
2023-01-22T09:53:19.756Z,3.68
2023-01-22T09:56:44.017Z,3.62
2023-01-22T09:59:52.977Z,3.71
2023-01-22T10:03:09.761Z,3.81
2023-01-22T10:06:19.876Z,3.87
2023-01-22T10:09:26.023Z,3.89
2023-01-22T10:12:35.832Z,4.00
2023-01-22T10:15:42.485Z,3.92
2023-01-22T10:18:56.781Z,3.86
2023-01-22T10:22:08.779Z,3.89
2023-01-22T10:25:18.078Z,3.66
2023-01-22T10:28:26.909Z,3.61
2023-01-22T10:31:31.818Z,3.67
2023-01-22T10:34:37.113Z,3.67
2023-01-22T10:37:48.256Z,3.63
2023-01-22T10:40:57.425Z,3.79
2023-01-22T10:44:17.922Z,3.86
2023-01-22T10:47:25.195Z,3.67
2023-01-22T10:50:30.889Z,3.53
2023-01-22T10:53:37.346Z,3.46
2023-01-22T10:56:44.449Z,3.46
2023-01-22T10:59:56.310Z,3.37
2023-01-22T11:03:03.654Z,3.40
2023-01-22T11:06:15.221Z,3.46
2023-01-22T11:09:22.092Z,3.44
2023-01-22T11:12:33.109Z,3.43
2023-01-22T11:15:56.129Z,3.55
2023-01-22T11:19:06.998Z,3.60
2023-01-22T11:22:25.945Z,3.63
2023-01-22T11:25:36.057Z,3.74
2023-01-22T11:28:46.867Z,3.90
2023-01-22T11:31:56.797Z,3.96
2023-01-22T11:35:11.177Z,3.76
2023-01-22T11:38:23.090Z,3.69
2023-01-22T11:41:29.515Z,3.64
2023-01-22T11:44:39.831Z,3.63
2023-01-22T11:47:48.384Z,4.01
2023-01-22T11:51:13.794Z,4.00
2023-01-22T11:54:40.265Z,4.03
2023-01-22T11:58:00.443Z,4.03
2023-01-22T12:01:08.103Z,4.17
2023-01-22T12:04:14.847Z,4.12
2023-01-22T12:07:41.939Z,4.11
2023-01-22T12:10:55.028Z,4.14
2023-01-22T12:14:23.462Z,4.12
2023-01-22T12:17:41.959Z,4.16
2023-01-22T12:20:51.472Z,4.34
2023-01-22T12:24:01.342Z,4.22
2023-01-22T12:27:07.732Z,4.19
2023-01-22T12:30:26.619Z,4.22
2023-01-22T12:33:34.343Z,4.23
2023-01-22T12:36:44.601Z,4.27
2023-01-22T12:40:07.220Z,4.26
2023-01-22T12:43:13.779Z,4.25
2023-01-22T12:46:38.797Z,4.48
2023-01-22T12:49:48.581Z,4.50
2023-01-22T12:53:00.927Z,4.31
2023-01-22T12:56:11.571Z,4.26
2023-01-22T12:59:36.308Z,4.51
2023-01-22T13:02:43.305Z,4.45
2023-01-22T13:05:48.324Z,4.45
2023-01-22T13:08:54.611Z,4.48
2023-01-22T13:12:10.136Z,4.32
2023-01-22T13:15:21.331Z,4.30
2023-01-22T13:18:29.313Z,4.29
2023-01-22T13:21:35.022Z,4.34
2023-01-22T13:24:58.646Z,4.43
2023-01-22T13:28:05.702Z,4.54
2023-01-22T13:31:17.877Z,4.54
2023-01-22T13:34:24.591Z,4.61
2023-01-22T13:37:31.659Z,4.73
2023-01-22T13:40:50.822Z,4.83
2023-01-22T13:43:57.709Z,4.88
2023-01-22T13:47:04.432Z,4.78
2023-01-22T13:50:18.522Z,4.69
2023-01-22T13:53:26.647Z,4.76
2023-01-22T13:56:34.214Z,4.80
2023-01-22T13:59:41.234Z,4.86
2023-01-22T14:02:48.500Z,4.92
2023-01-22T14:06:09.412Z,5.06
2023-01-22T14:09:27.330Z,4.90
2023-01-22T14:12:35.077Z,4.86
2023-01-22T14:15:43.646Z,4.79
2023-01-22T14:18:51.642Z,4.80
2023-01-22T14:22:00.432Z,4.84
2023-01-22T14:25:08.113Z,4.79
2023-01-22T14:28:13.114Z,4.58
2023-01-22T14:31:17.431Z,4.60
2023-01-22T14:34:23.205Z,4.66
2023-01-22T14:37:29.824Z,4.71
2023-01-22T14:40:43.064Z,4.75
2023-01-22T14:43:51.830Z,4.65
2023-01-22T14:46:59.032Z,4.56
2023-01-22T14:50:06.117Z,4.65
2023-01-22T14:53:13.802Z,4.56
2023-01-22T14:56:21.337Z,4.61
2023-01-22T14:59:26.962Z,4.53
2023-01-22T15:02:38.875Z,4.49
2023-01-22T15:05:46.139Z,4.46
2023-01-22T15:08:53.857Z,4.46
2023-01-22T15:12:00.630Z,4.61
2023-01-22T15:15:11.032Z,4.56
2023-01-22T15:18:17.002Z,4.57
2023-01-22T15:21:24.706Z,4.60
2023-01-22T15:24:29.486Z,4.55
2023-01-22T15:27:38.862Z,4.56
2023-01-22T15:30:50.080Z,4.52
2023-01-22T15:34:00.407Z,4.52
2023-01-22T15:37:05.867Z,4.55
2023-01-22T15:40:13.290Z,4.55
2023-01-22T15:43:18.018Z,4.66
2023-01-22T15:46:28.987Z,4.44
2023-01-22T15:49:35.986Z,4.47
2023-01-22T15:52:44.902Z,4.44
2023-01-22T15:55:52.499Z,4.47
2023-01-22T15:58:58.253Z,4.48
2023-01-22T16:02:02.289Z,4.54
2023-01-22T16:05:08.928Z,4.50
2023-01-22T16:08:13.071Z,4.63
2023-01-22T16:11:20.847Z,4.64
2023-01-22T16:14:26.337Z,4.69
2023-01-22T16:17:37.768Z,4.53
2023-01-22T16:20:44.528Z,4.40
2023-01-22T16:23:57.534Z,4.46
2023-01-22T16:27:01.865Z,4.37
2023-01-22T16:30:08.452Z,4.34
2023-01-22T16:33:25.065Z,4.36
2023-01-22T16:36:32.745Z,4.36
2023-01-22T16:39:39.050Z,4.45
2023-01-22T16:42:58.900Z,4.36
2023-01-22T16:46:04.865Z,4.36
2023-01-22T16:49:16.233Z,4.40
2023-01-22T16:52:23.075Z,4.33
2023-01-22T16:55:32.023Z,4.35
2023-01-22T16:58:38.134Z,4.34
2023-01-22T17:01:45.776Z,4.34
2023-01-22T17:04:50.960Z,4.33
2023-01-22T17:07:58.092Z,4.38
2023-01-22T17:11:02.689Z,4.34
2023-01-22T17:14:08.010Z,4.35
2023-01-22T17:17:15.425Z,4.35
2023-01-22T17:20:25.350Z,4.38
2023-01-22T17:23:34.909Z,4.37
2023-01-22T17:26:43.688Z,4.45
2023-01-22T17:29:49.573Z,4.59
2023-01-22T17:32:54.401Z,4.64
2023-01-22T17:36:00.152Z,4.62
2023-01-22T17:39:08.872Z,4.65
2023-01-22T17:42:15.707Z,4.42
2023-01-22T17:45:22.388Z,4.65
2023-01-22T17:48:33.744Z,4.58
2023-01-22T17:51:43.960Z,4.46
2023-01-22T17:54:54.735Z,4.50
2023-01-22T17:58:00.640Z,4.51
2023-01-22T18:01:09.122Z,4.48
2023-01-22T18:04:14.653Z,4.52
2023-01-22T18:07:19.001Z,4.34
2023-01-22T18:10:26.101Z,4.45
2023-01-22T18:13:31.334Z,4.56
2023-01-22T18:16:40.458Z,4.37
2023-01-22T18:19:46.240Z,4.33
2023-01-22T18:22:50.895Z,4.38
2023-01-22T18:25:58.499Z,4.44
2023-01-22T18:29:05.022Z,4.48
2023-01-22T18:32:11.462Z,4.49
2023-01-22T18:35:21.256Z,4.50
2023-01-22T18:38:31.025Z,4.41
2023-01-22T18:41:39.888Z,4.31
2023-01-22T18:44:47.181Z,4.27
2023-01-22T18:47:53.736Z,4.34
2023-01-22T18:51:01.695Z,4.26
2023-01-22T18:54:09.987Z,4.32
2023-01-22T18:57:15.354Z,4.14
2023-01-22T19:00:22.951Z,4.06
2023-01-22T19:03:30.790Z,3.96
2023-01-22T19:06:40.580Z,4.05
2023-01-22T19:09:46.927Z,4.06
2023-01-22T19:12:55.232Z,3.90
2023-01-22T19:16:10.717Z,3.97
2023-01-22T19:19:18.789Z,4.04
2023-01-22T19:22:25.854Z,3.97
2023-01-22T19:25:32.009Z,3.89
2023-01-22T19:28:36.199Z,3.91
2023-01-22T19:31:44.455Z,3.91
2023-01-22T19:34:53.193Z,3.94
2023-01-22T19:38:00.132Z,3.93
2023-01-22T19:41:06.202Z,3.96
2023-01-22T19:44:12.894Z,3.85
2023-01-22T19:47:18.446Z,3.69
2023-01-22T19:50:29.863Z,3.56
2023-01-22T19:53:35.316Z,3.42
2023-01-22T19:56:41.967Z,3.41
2023-01-22T19:59:48.388Z,3.41
2023-01-22T20:02:53.851Z,3.42
2023-01-22T20:05:59.341Z,3.32
2023-01-22T20:09:05.987Z,3.30
2023-01-22T20:12:11.946Z,3.16
2023-01-22T20:15:17.232Z,3.00
2023-01-22T20:18:27.151Z,2.93
2023-01-22T20:21:34.810Z,2.93
2023-01-22T20:24:43.182Z,2.86
2023-01-22T20:27:53.037Z,2.85
2023-01-22T20:31:05.683Z,2.83
2023-01-22T20:34:12.178Z,2.76
2023-01-22T20:37:17.461Z,2.86
2023-01-22T20:40:28.039Z,2.90
2023-01-22T20:43:34.753Z,2.82
2023-01-22T20:46:42.741Z,2.97
2023-01-22T20:49:54.248Z,2.91
2023-01-22T20:53:01.891Z,3.04
2023-01-22T20:56:08.902Z,2.93
2023-01-22T20:59:17.941Z,2.98
2023-01-22T21:02:23.745Z,2.89
2023-01-22T21:05:30.881Z,2.82
2023-01-22T21:08:37.832Z,2.65
2023-01-22T21:11:44.642Z,2.57
2023-01-22T21:14:55.401Z,2.66
2023-01-22T21:18:05.371Z,2.77
2023-01-22T21:21:12.282Z,2.82
2023-01-22T21:24:17.233Z,2.94
2023-01-22T21:27:23.309Z,2.92
2023-01-22T21:30:26.598Z,2.94
2023-01-22T21:33:31.474Z,2.82
2023-01-22T21:36:37.610Z,2.86
2023-01-22T21:39:46.695Z,2.67
2023-01-22T21:43:11.306Z,2.60
2023-01-22T21:46:24.337Z,2.62
2023-01-22T21:49:32.904Z,2.60
2023-01-22T21:52:41.413Z,2.66
2023-01-22T21:55:52.912Z,2.66
2023-01-22T21:59:02.377Z,2.54
2023-01-22T22:02:11.771Z,2.45
2023-01-22T22:05:18.041Z,2.41
2023-01-22T22:08:26.654Z,2.51
2023-01-22T22:11:34.408Z,2.68
2023-01-22T22:14:42.040Z,2.56
2023-01-22T22:17:49.954Z,2.55
2023-01-22T22:21:01.055Z,2.47
2023-01-22T22:24:09.731Z,2.45
2023-01-22T22:27:15.304Z,2.49
2023-01-22T22:30:25.324Z,2.52
2023-01-22T22:33:33.403Z,2.42
2023-01-22T22:36:40.471Z,2.49
2023-01-22T22:39:49.209Z,2.40
2023-01-22T22:43:00.051Z,2.31
2023-01-22T22:46:11.993Z,2.27
2023-01-22T22:49:18.222Z,2.25
2023-01-22T22:52:26.540Z,2.27
2023-01-22T22:55:34.601Z,2.26
2023-01-22T22:58:40.384Z,2.24
2023-01-22T23:01:46.846Z,2.38
2023-01-22T23:04:53.088Z,2.28
2023-01-22T23:08:00.329Z,2.27
2023-01-22T23:11:08.551Z,2.21
2023-01-22T23:14:15.691Z,2.19
2023-01-22T23:17:21.408Z,2.16
2023-01-22T23:20:33.130Z,2.06
2023-01-22T23:23:38.575Z,1.98
2023-01-22T23:26:47.002Z,1.98
2023-01-22T23:29:53.050Z,2.06
2023-01-22T23:32:58.356Z,2.09
2023-01-22T23:36:14.932Z,1.93
2023-01-22T23:39:21.254Z,1.89
2023-01-22T23:42:26.856Z,1.90
2023-01-22T23:45:32.621Z,1.91
2023-01-22T23:48:41.276Z,1.96
2023-01-22T23:51:50.629Z,1.79
2023-01-22T23:54:59.457Z,1.81
2023-01-22T23:58:07.336Z,1.80
